createdAt,value
2019-04-28T00:01:37.802Z,7.70
2019-04-28T00:04:07.163Z,4.43
2019-04-28T00:06:36.496Z,7.90
2019-04-28T00:09:07.856Z,6.63
2019-04-28T00:11:37.358Z,4.40
2019-04-28T00:14:08.404Z,6.83
2019-04-28T00:16:37.944Z,7.17
2019-04-28T00:19:07.427Z,6.47
2019-04-28T00:21:41.463Z,8.20
2019-04-28T00:24:28.991Z,3.20
2019-04-28T00:27:01.816Z,7.43
2019-04-28T00:29:38.556Z,7.20
2019-04-28T00:32:02.460Z,6.43
2019-04-28T00:34:31.815Z,6.10
2019-04-28T00:37:06.018Z,5.87
2019-04-28T00:39:35.374Z,6.07
2019-04-28T00:42:05.059Z,4.57
2019-04-28T00:44:34.423Z,6.97
2019-04-28T00:47:03.840Z,6.87
2019-04-28T00:49:48.395Z,7.53
2019-04-28T00:52:18.760Z,9.73
2019-04-28T00:54:49.045Z,6.63
2019-04-28T00:57:20.880Z,7.50
2019-04-28T00:59:56.709Z,3.80
2019-04-28T01:02:31.886Z,10.13
2019-04-28T01:05:01.831Z,5.97
2019-04-28T01:07:33.064Z,3.90
2019-04-28T01:10:02.663Z,5.93
2019-04-28T01:12:32.054Z,9.27
2019-04-28T01:15:04.531Z,6.27
2019-04-28T01:17:36.779Z,4.47
2019-04-28T01:20:11.559Z,10.97
2019-04-28T01:22:40.902Z,8.60
2019-04-28T01:25:10.790Z,9.30
2019-04-28T01:27:41.840Z,7.00
2019-04-28T01:30:30.029Z,5.93
2019-04-28T01:33:04.066Z,6.20
2019-04-28T01:35:33.542Z,10.57
2019-04-28T01:38:02.890Z,4.67
2019-04-28T01:40:32.308Z,5.80
2019-04-28T01:43:01.652Z,8.33
2019-04-28T01:45:31.011Z,3.33
2019-04-28T01:48:02.201Z,4.77
2019-04-28T01:50:31.398Z,8.83
2019-04-28T01:53:00.838Z,8.47
2019-04-28T01:55:30.194Z,8.07
2019-04-28T01:57:59.709Z,5.23
2019-04-28T02:00:29.734Z,4.80
2019-04-28T02:03:00.182Z,5.40
2019-04-28T02:05:30.553Z,9.60
2019-04-28T02:08:00.343Z,6.30
2019-04-28T02:10:30.237Z,5.57
2019-04-28T02:12:59.968Z,7.03
2019-04-28T02:15:30.186Z,5.03
2019-04-28T02:18:00.222Z,4.63
2019-04-28T02:20:30.206Z,5.47
2019-04-28T02:23:01.327Z,4.80
2019-04-28T02:25:30.743Z,5.07
2019-04-28T02:28:00.114Z,6.30
2019-04-28T02:30:42.315Z,5.43
2019-04-28T02:33:01.628Z,7.37
2019-04-28T02:35:33.802Z,5.70
2019-04-28T02:38:02.401Z,5.23
2019-04-28T02:40:31.812Z,7.93
2019-04-28T02:43:01.415Z,6.27
2019-04-28T02:45:31.748Z,4.70
2019-04-28T02:48:02.966Z,6.10
2019-04-28T02:50:34.012Z,8.60
2019-04-28T02:53:23.027Z,5.37
2019-04-28T02:55:52.434Z,4.73
2019-04-28T02:58:22.545Z,6.20
2019-04-28T03:01:02.912Z,5.10
2019-04-28T03:03:23.393Z,4.73
2019-04-28T03:05:52.873Z,6.57
2019-04-28T03:08:22.359Z,5.80
2019-04-28T03:10:51.745Z,10.20
2019-04-28T03:13:21.171Z,7.70
2019-04-28T03:15:51.542Z,5.43
2019-04-28T03:18:21.563Z,8.97
2019-04-28T03:20:51.830Z,7.50
2019-04-28T03:23:21.934Z,9.07
2019-04-28T03:26:01.669Z,7.67
2019-04-28T03:28:41.209Z,7.67
2019-04-28T03:31:59.033Z,3.10
2019-04-28T03:34:03.445Z,3.10
2019-04-28T03:36:33.144Z,7.00
2019-04-28T03:39:01.606Z,7.97
2019-04-28T03:41:31.259Z,7.93
2019-04-28T03:44:00.791Z,5.03
2019-04-28T03:46:31.751Z,6.83
2019-04-28T03:49:01.286Z,4.13
2019-04-28T03:51:31.047Z,5.53
2019-04-28T03:54:03.014Z,8.10
2019-04-28T03:56:31.489Z,5.77
2019-04-28T03:59:00.877Z,5.57
2019-04-28T04:01:30.574Z,7.17
2019-04-28T04:04:01.179Z,5.93
2019-04-28T04:06:31.311Z,6.27
2019-04-28T04:09:00.757Z,7.20
2019-04-28T04:11:41.161Z,6.00
2019-04-28T04:14:31.068Z,5.13
2019-04-28T04:17:04.942Z,2.87
2019-04-28T04:19:35.777Z,5.10
2019-04-28T04:22:05.185Z,4.53
2019-04-28T04:24:34.635Z,4.43
2019-04-28T04:27:03.987Z,8.00
2019-04-28T04:29:33.446Z,5.40
2019-04-28T04:32:15.579Z,4.80
2019-04-28T04:34:33.851Z,6.27
2019-04-28T04:37:03.185Z,4.77
2019-04-28T04:39:32.532Z,4.57
2019-04-28T04:42:01.875Z,5.13
2019-04-28T04:44:31.299Z,5.70
2019-04-28T04:47:01.043Z,6.03
2019-04-28T04:49:31.566Z,5.90
2019-04-28T04:52:01.278Z,4.87
2019-04-28T04:54:32.782Z,4.20
2019-04-28T04:57:01.660Z,4.47
2019-04-28T04:59:32.660Z,3.33
2019-04-28T05:02:29.533Z,6.40
2019-04-28T05:04:51.648Z,5.17
2019-04-28T05:07:21.130Z,5.80
2019-04-28T05:09:50.483Z,8.10
2019-04-28T05:12:19.806Z,7.33
2019-04-28T05:14:49.468Z,5.30
2019-04-28T05:17:20.279Z,8.13
2019-04-28T05:19:49.786Z,5.90
2019-04-28T05:22:20.748Z,4.77
2019-04-28T05:24:54.607Z,5.10
2019-04-28T05:27:25.634Z,4.57
2019-04-28T05:29:56.763Z,3.47
2019-04-28T05:32:39.273Z,4.10
2019-04-28T05:34:57.168Z,5.37
2019-04-28T05:37:26.550Z,4.17
2019-04-28T05:39:55.973Z,6.33
2019-04-28T05:42:25.311Z,6.77
2019-04-28T05:44:54.658Z,5.20
2019-04-28T05:47:23.999Z,4.10
2019-04-28T05:49:54.986Z,7.00
2019-04-28T05:52:42.458Z,7.03
2019-04-28T05:55:13.690Z,5.00
2019-04-28T05:58:00.826Z,8.83
2019-04-28T06:00:42.210Z,6.37
2019-04-28T06:03:13.278Z,5.60
2019-04-28T06:05:42.690Z,6.93
2019-04-28T06:08:30.374Z,5.73
2019-04-28T06:10:59.990Z,7.93
2019-04-28T06:13:30.308Z,6.10
2019-04-28T06:15:59.988Z,4.63
2019-04-28T06:18:30.778Z,7.33
2019-04-28T06:21:00.221Z,5.60
2019-04-28T06:23:29.555Z,4.30
2019-04-28T06:25:58.947Z,4.90
2019-04-28T06:28:28.282Z,7.03
2019-04-28T06:30:57.761Z,4.47
2019-04-28T06:33:27.138Z,7.03
2019-04-28T06:35:56.506Z,6.57
2019-04-28T06:38:25.849Z,8.47
2019-04-28T06:40:55.210Z,4.70
2019-04-28T06:43:24.605Z,5.13
2019-04-28T06:45:54.046Z,7.53
2019-04-28T06:48:23.394Z,7.53
2019-04-28T06:50:52.826Z,7.60
2019-04-28T06:53:22.238Z,4.90
2019-04-28T06:55:51.677Z,5.50
2019-04-28T06:58:21.039Z,8.07
2019-04-28T07:00:50.514Z,5.63
2019-04-28T07:03:23.233Z,4.77
2019-04-28T07:05:50.939Z,3.93
2019-04-28T07:08:20.294Z,5.60
2019-04-28T07:10:49.734Z,5.93
2019-04-28T07:13:20.659Z,7.40
2019-04-28T07:15:50.222Z,7.30
2019-04-28T07:18:19.615Z,5.17
2019-04-28T07:20:59.832Z,6.03
2019-04-28T07:23:29.955Z,7.50
2019-04-28T07:26:18.637Z,6.13
2019-04-28T07:28:48.126Z,7.70
2019-04-28T07:31:19.498Z,5.97
2019-04-28T07:33:49.049Z,4.37
2019-04-28T07:36:18.410Z,7.17
2019-04-28T07:38:47.822Z,7.30
2019-04-28T07:41:17.262Z,6.23
2019-04-28T07:43:46.682Z,7.33
2019-04-28T07:46:16.186Z,10.10
2019-04-28T07:48:45.614Z,5.77
2019-04-28T07:51:15.044Z,9.17
2019-04-28T07:53:48.755Z,6.37
2019-04-28T07:56:18.201Z,7.67
2019-04-28T07:58:47.630Z,8.57
2019-04-28T08:01:17.018Z,6.43
2019-04-28T08:03:49.836Z,5.77
2019-04-28T08:06:17.429Z,6.53
2019-04-28T08:08:46.771Z,6.23
2019-04-28T08:11:16.578Z,7.13
2019-04-28T08:13:46.233Z,5.67
2019-04-28T08:16:15.585Z,7.10
2019-04-28T08:18:45.073Z,4.60
2019-04-28T08:21:14.406Z,8.27
2019-04-28T08:23:47.222Z,9.87
2019-04-28T08:26:15.026Z,7.43
2019-04-28T08:28:44.476Z,11.27
2019-04-28T08:31:15.562Z,7.17
2019-04-28T08:33:46.629Z,9.67
2019-04-28T08:36:15.973Z,6.03
2019-04-28T08:38:45.416Z,5.43
2019-04-28T08:41:14.785Z,9.07
2019-04-28T08:43:44.154Z,8.37
2019-04-28T08:46:13.584Z,10.00
2019-04-28T08:48:42.939Z,7.40
2019-04-28T08:51:12.297Z,6.73
2019-04-28T08:53:41.803Z,5.60
2019-04-28T08:56:11.231Z,8.87
2019-04-28T08:58:40.614Z,12.00
2019-04-28T09:01:10.047Z,4.57
2019-04-28T09:03:39.412Z,7.90
2019-04-28T09:06:08.766Z,6.70
2019-04-28T09:08:38.121Z,5.20
2019-04-28T09:11:07.551Z,8.17
2019-04-28T09:13:36.922Z,6.87
2019-04-28T09:16:06.348Z,6.37
2019-04-28T09:18:35.806Z,7.03
2019-04-28T09:21:05.166Z,7.70
2019-04-28T09:23:34.498Z,5.80
2019-04-28T09:26:04.113Z,6.40
2019-04-28T09:28:33.473Z,9.23
2019-04-28T09:31:03.027Z,7.97
2019-04-28T09:33:32.489Z,7.73
2019-04-28T09:36:01.859Z,6.20
2019-04-28T09:38:31.251Z,5.50
2019-04-28T09:41:00.646Z,5.83
2019-04-28T09:43:34.390Z,8.10
2019-04-28T09:46:05.469Z,4.80
2019-04-28T09:48:34.898Z,11.57
2019-04-28T09:51:04.414Z,5.37
2019-04-28T09:53:33.783Z,5.57
2019-04-28T09:56:03.316Z,8.07
2019-04-28T09:58:32.810Z,9.80
2019-04-28T10:01:02.393Z,8.63
2019-04-28T10:03:31.879Z,5.63
2019-04-28T10:06:01.559Z,8.40
2019-04-28T10:08:30.915Z,9.33
2019-04-28T10:11:00.355Z,6.93
2019-04-28T10:13:29.815Z,7.57
2019-04-28T10:15:59.358Z,9.07
2019-04-28T10:18:28.743Z,7.23
2019-04-28T10:20:58.158Z,7.20
2019-04-28T10:23:27.593Z,6.53
2019-04-28T10:25:57.837Z,5.37
2019-04-28T10:28:27.196Z,6.80
2019-04-28T10:30:56.551Z,6.97
2019-04-28T10:33:26.121Z,6.77
2019-04-28T10:35:55.534Z,4.40
2019-04-28T10:38:24.940Z,6.57
2019-04-28T10:40:56.059Z,6.27
2019-04-28T10:43:25.507Z,7.17
2019-04-28T10:45:55.248Z,9.87
2019-04-28T10:48:24.582Z,5.60
2019-04-28T10:50:53.964Z,9.83
2019-04-28T10:53:23.304Z,7.00
2019-04-28T10:55:52.662Z,4.87
2019-04-28T10:58:22.112Z,8.13
2019-04-28T11:00:51.480Z,5.10
2019-04-28T11:03:20.941Z,5.67
2019-04-28T11:05:50.314Z,5.13
2019-04-28T11:08:30.450Z,5.67
2019-04-28T11:11:01.601Z,3.87
2019-04-28T11:13:30.935Z,3.60
2019-04-28T11:16:00.430Z,4.37
2019-04-28T11:18:29.847Z,3.17
2019-04-28T11:20:59.670Z,3.50
2019-04-28T11:23:29.070Z,3.37
2019-04-28T11:25:58.521Z,5.23
2019-04-28T11:28:28.120Z,5.03
2019-04-28T11:30:59.019Z,3.50
2019-04-28T11:33:45.388Z,4.83
2019-04-28T11:36:16.454Z,3.67
2019-04-28T11:38:45.870Z,4.90
2019-04-28T11:41:15.487Z,5.03
2019-04-28T11:43:45.210Z,3.20
2019-04-28T11:46:16.316Z,4.63
2019-04-28T11:48:45.935Z,6.43
2019-04-28T11:51:15.307Z,5.30
2019-04-28T11:53:44.817Z,5.50
2019-04-28T11:56:14.257Z,5.20
2019-04-28T11:58:43.586Z,3.57
2019-04-28T12:01:14.702Z,3.50
2019-04-28T12:03:44.035Z,2.80
2019-04-28T12:06:13.769Z,4.17
2019-04-28T12:08:43.165Z,3.13
2019-04-28T12:11:14.182Z,4.83
2019-04-28T12:13:45.447Z,4.57
2019-04-28T12:16:18.959Z,3.63
2019-04-28T12:18:52.811Z,4.70
2019-04-28T12:21:22.627Z,3.60
2019-04-28T12:23:51.974Z,4.00
2019-04-28T12:26:21.405Z,4.90
2019-04-28T12:28:50.782Z,5.77
2019-04-28T12:31:20.282Z,4.17
2019-04-28T12:33:49.613Z,4.43
2019-04-28T12:36:18.988Z,5.20
2019-04-28T12:38:48.400Z,3.40
2019-04-28T12:41:17.761Z,2.87
2019-04-28T12:43:47.245Z,3.53
2019-04-28T12:46:16.769Z,4.13
2019-04-28T12:48:46.107Z,2.97
2019-04-28T12:51:15.490Z,4.10
2019-04-28T12:53:44.902Z,3.40
2019-04-28T12:56:15.607Z,4.63
2019-04-28T12:58:45.017Z,4.60
2019-04-28T13:01:28.086Z,6.70
2019-04-28T13:03:59.092Z,2.87
2019-04-28T13:06:28.460Z,4.20
2019-04-28T13:08:57.805Z,5.70
2019-04-28T13:11:27.293Z,3.07
2019-04-28T13:13:56.651Z,3.83
2019-04-28T13:16:26.023Z,5.50
2019-04-28T13:18:55.425Z,2.20
2019-04-28T13:21:24.892Z,2.80
2019-04-28T13:23:54.282Z,6.70
2019-04-28T13:26:23.761Z,2.70
2019-04-28T13:28:53.098Z,4.53
2019-04-28T13:31:22.552Z,3.47
2019-04-28T13:33:56.353Z,3.97
2019-04-28T13:36:23.062Z,3.23
2019-04-28T13:38:52.426Z,2.53
2019-04-28T13:41:21.786Z,4.10
2019-04-28T13:43:51.151Z,3.40
2019-04-28T13:46:20.490Z,2.80
2019-04-28T13:48:49.837Z,5.70
2019-04-28T13:51:19.277Z,3.27
2019-04-28T13:53:48.702Z,3.17
2019-04-28T13:56:18.151Z,3.67
2019-04-28T13:58:48.467Z,2.50
2019-04-28T14:01:25.361Z,3.90
2019-04-28T14:04:05.527Z,4.40
2019-04-28T14:06:36.853Z,2.37
2019-04-28T14:09:09.607Z,3.93
2019-04-28T14:11:39.039Z,2.90
2019-04-28T14:14:08.515Z,2.87
2019-04-28T14:16:38.019Z,3.50
2019-04-28T14:19:07.426Z,2.20
2019-04-28T14:21:36.829Z,2.97
2019-04-28T14:24:06.279Z,4.10
2019-04-28T14:26:36.011Z,2.40
2019-04-28T14:29:05.354Z,3.93
2019-04-28T14:31:34.756Z,4.00
2019-04-28T14:34:04.232Z,4.47
2019-04-28T14:36:42.005Z,3.77
2019-04-28T14:39:07.323Z,2.00
2019-04-28T14:41:36.848Z,2.37
2019-04-28T14:44:07.971Z,2.80
2019-04-28T14:46:37.412Z,6.30
2019-04-28T14:49:06.820Z,2.40
2019-04-28T14:51:36.243Z,4.03
2019-04-28T14:54:05.736Z,2.43
2019-04-28T14:56:35.078Z,1.77
2019-04-28T14:59:04.772Z,2.23
2019-04-28T15:01:52.411Z,1.53
2019-04-28T15:04:26.071Z,2.90
2019-04-28T15:06:59.634Z,2.13
2019-04-28T15:09:45.975Z,2.37
2019-04-28T15:12:15.616Z,2.07
2019-04-28T15:14:45.011Z,1.97
2019-04-28T15:17:14.463Z,2.97
2019-04-28T15:19:43.834Z,1.70
2019-04-28T15:22:13.335Z,1.70
2019-04-28T15:24:42.820Z,1.93
2019-04-28T15:27:12.281Z,1.50
2019-04-28T15:29:41.652Z,2.70
2019-04-28T15:32:11.084Z,2.23
2019-04-28T15:34:40.517Z,2.17
2019-04-28T15:37:10.395Z,2.57
2019-04-28T15:39:39.862Z,1.93
2019-04-28T15:42:09.230Z,1.90
2019-04-28T15:44:38.661Z,2.20
2019-04-28T15:47:08.100Z,2.23
2019-04-28T15:49:37.449Z,1.63
2019-04-28T15:52:06.884Z,2.20
2019-04-28T15:54:36.258Z,3.90
2019-04-28T15:57:05.769Z,2.20
2019-04-28T15:59:35.284Z,1.87
2019-04-28T16:02:04.713Z,2.47
2019-04-28T16:04:34.060Z,1.63
2019-04-28T16:07:03.495Z,2.00
2019-04-28T16:09:32.852Z,3.03
2019-04-28T16:12:02.214Z,1.80
2019-04-28T16:14:31.643Z,2.13
2019-04-28T16:17:01.007Z,1.90
2019-04-28T16:19:30.515Z,2.90
2019-04-28T16:21:59.964Z,1.57
2019-04-28T16:24:29.327Z,2.70
2019-04-28T16:26:58.780Z,3.00
2019-04-28T16:29:28.128Z,2.00
2019-04-28T16:31:57.497Z,2.90
2019-04-28T16:34:26.891Z,2.50
2019-04-28T16:36:56.230Z,2.47
2019-04-28T16:39:25.626Z,2.37
2019-04-28T16:41:55.923Z,2.07
2019-04-28T16:44:26.074Z,3.03
2019-04-28T16:46:55.519Z,2.77
2019-04-28T16:49:24.937Z,2.00
2019-04-28T16:51:54.292Z,1.77
2019-04-28T16:54:23.670Z,2.10
2019-04-28T16:56:54.663Z,2.27
2019-04-28T16:59:34.582Z,2.67
2019-04-28T17:02:11.821Z,2.80
2019-04-28T17:04:41.364Z,2.73
2019-04-28T17:07:11.176Z,3.73
2019-04-28T17:09:40.550Z,2.17
2019-04-28T17:12:10.053Z,2.80
2019-04-28T17:14:39.446Z,4.30
2019-04-28T17:17:08.788Z,2.20
2019-04-28T17:19:38.150Z,2.40
2019-04-28T17:22:07.738Z,3.17
2019-04-28T17:24:37.119Z,2.23
2019-04-28T17:27:06.561Z,2.40
2019-04-28T17:29:37.852Z,2.83
2019-04-28T17:32:07.064Z,2.23
2019-04-28T17:34:36.510Z,2.30
2019-04-28T17:37:07.188Z,2.17
2019-04-28T17:39:36.623Z,2.37
2019-04-28T17:42:07.459Z,2.53
2019-04-28T17:44:36.904Z,2.83
2019-04-28T17:47:06.407Z,2.67
2019-04-28T17:49:37.353Z,2.13
2019-04-28T17:52:09.198Z,3.83
2019-04-28T17:54:38.598Z,3.83
2019-04-28T17:57:08.036Z,2.37
2019-04-28T17:59:37.859Z,2.70
2019-04-28T18:02:25.135Z,3.00
2019-04-28T18:05:08.193Z,2.60
2019-04-28T18:07:38.605Z,3.03
2019-04-28T18:10:08.722Z,2.80
2019-04-28T18:12:38.158Z,3.07
2019-04-28T18:15:15.919Z,2.60
2019-04-28T18:17:58.963Z,2.77
2019-04-28T18:20:28.388Z,3.80
2019-04-28T18:22:57.942Z,3.50
2019-04-28T18:25:27.303Z,7.23
2019-04-28T18:27:56.750Z,2.00
2019-04-28T18:30:27.842Z,2.40
2019-04-28T18:33:01.603Z,2.97
2019-04-28T18:35:32.649Z,3.07
2019-04-28T18:38:12.380Z,2.40
2019-04-28T18:40:49.351Z,3.23
2019-04-28T18:43:36.434Z,2.73
2019-04-28T18:46:05.890Z,2.70
2019-04-28T18:48:36.277Z,2.90
2019-04-28T18:51:05.703Z,2.40
2019-04-28T18:53:35.126Z,2.30
2019-04-28T18:56:04.570Z,2.23
2019-04-28T18:58:33.943Z,1.90
2019-04-28T19:01:07.997Z,1.93
2019-04-28T19:03:37.427Z,2.20
2019-04-28T19:06:06.829Z,2.30
2019-04-28T19:08:48.574Z,2.87
2019-04-28T19:11:10.596Z,2.20
2019-04-28T19:13:41.562Z,3.27
2019-04-28T19:16:12.656Z,2.30
2019-04-28T19:18:55.715Z,2.37
2019-04-28T19:21:25.130Z,2.30
2019-04-28T19:23:54.491Z,3.13
2019-04-28T19:26:23.943Z,2.93
2019-04-28T19:28:53.304Z,2.40
2019-04-28T19:31:22.794Z,3.30
2019-04-28T19:33:52.247Z,3.23
2019-04-28T19:36:21.600Z,3.47
2019-04-28T19:39:02.598Z,2.80
2019-04-28T19:41:22.226Z,3.20
2019-04-28T19:43:51.562Z,3.00
2019-04-28T19:46:21.032Z,3.30
2019-04-28T19:48:50.396Z,3.37
2019-04-28T19:51:31.238Z,3.57
2019-04-28T19:53:51.522Z,3.77
2019-04-28T19:56:22.517Z,4.00
2019-04-28T19:58:53.609Z,3.40
2019-04-28T20:01:24.694Z,3.40
2019-04-28T20:03:54.120Z,2.90
2019-04-28T20:06:23.554Z,3.30
2019-04-28T20:08:52.914Z,3.73
2019-04-28T20:11:22.293Z,4.63
2019-04-28T20:13:51.705Z,2.77
2019-04-28T20:16:21.079Z,2.90
2019-04-28T20:18:50.433Z,2.60
2019-04-28T20:21:19.813Z,3.80
2019-04-28T20:23:49.292Z,3.03
2019-04-28T20:26:18.876Z,2.93
2019-04-28T20:28:48.240Z,3.20
2019-04-28T20:31:17.670Z,3.47
2019-04-28T20:33:47.172Z,2.87
2019-04-28T20:36:26.899Z,3.70
2019-04-28T20:38:57.913Z,3.20
2019-04-28T20:41:28.743Z,3.20
2019-04-28T20:43:58.771Z,3.30
2019-04-28T20:46:28.146Z,4.37
2019-04-28T20:48:57.507Z,2.97
2019-04-28T20:51:26.938Z,3.03
2019-04-28T20:53:56.295Z,3.80
2019-04-28T20:56:44.989Z,3.37
2019-04-28T20:59:14.418Z,3.40
2019-04-28T21:01:43.795Z,3.10
2019-04-28T21:04:13.140Z,3.63
2019-04-28T21:06:42.529Z,3.60
2019-04-28T21:09:11.871Z,3.40
2019-04-28T21:11:41.243Z,2.70
2019-04-28T21:14:10.597Z,4.07
2019-04-28T21:16:39.998Z,2.90
2019-04-28T21:19:09.339Z,3.13
2019-04-28T21:21:38.794Z,2.93
2019-04-28T21:24:08.147Z,3.07
2019-04-28T21:26:37.519Z,2.67
2019-04-28T21:29:06.885Z,3.00
2019-04-28T21:31:36.245Z,3.17
2019-04-28T21:34:05.818Z,2.87
2019-04-28T21:36:35.186Z,3.63
2019-04-28T21:39:08.337Z,2.93
2019-04-28T21:41:37.718Z,2.60
2019-04-28T21:44:25.110Z,2.40
2019-04-28T21:46:58.536Z,3.10
2019-04-28T21:49:29.733Z,2.10
2019-04-28T21:51:59.182Z,2.43
2019-04-28T21:54:28.601Z,2.33
2019-04-28T21:56:57.956Z,2.00
2019-04-28T21:59:27.297Z,3.53
2019-04-28T22:01:56.811Z,2.20
2019-04-28T22:04:26.491Z,1.97
2019-04-28T22:06:56.065Z,2.30
2019-04-28T22:09:25.491Z,1.70
2019-04-28T22:11:54.987Z,2.97
2019-04-28T22:14:24.341Z,3.13
2019-04-28T22:16:53.766Z,2.00
2019-04-28T22:19:23.110Z,2.30
2019-04-28T22:21:52.547Z,2.37
2019-04-28T22:24:23.524Z,4.20
2019-04-28T22:26:54.554Z,1.90
2019-04-28T22:29:23.895Z,1.83
2019-04-28T22:31:53.499Z,2.17
2019-04-28T22:34:22.836Z,2.10
2019-04-28T22:36:52.282Z,1.90
2019-04-28T22:39:21.621Z,2.10
2019-04-28T22:41:50.980Z,2.00
2019-04-28T22:44:20.386Z,1.70
2019-04-28T22:46:49.746Z,1.97
2019-04-28T22:49:19.351Z,1.80
2019-04-28T22:51:48.719Z,1.93
2019-04-28T22:54:31.778Z,2.80
2019-04-28T22:57:02.840Z,2.10
2019-04-28T22:59:33.809Z,2.50
2019-04-28T23:02:05.151Z,1.83
2019-04-28T23:04:36.206Z,2.73
2019-04-28T23:07:06.011Z,2.10
2019-04-28T23:09:35.350Z,1.70
2019-04-28T23:12:05.314Z,2.00
2019-04-28T23:14:34.654Z,1.70
2019-04-28T23:17:06.017Z,2.63
2019-04-28T23:19:37.075Z,2.00
2019-04-28T23:22:08.400Z,2.03
2019-04-28T23:24:37.738Z,2.00
2019-04-28T23:27:07.174Z,2.00
2019-04-28T23:29:36.502Z,2.27
2019-04-28T23:32:06.100Z,1.80
2019-04-28T23:34:35.570Z,1.83
2019-04-28T23:37:05.174Z,1.90
2019-04-28T23:39:34.533Z,2.27
2019-04-28T23:42:08.770Z,2.70
2019-04-28T23:44:38.152Z,2.00
2019-04-28T23:47:07.494Z,2.77
2019-04-28T23:49:36.859Z,2.40
2019-04-28T23:52:26.010Z,1.93
2019-04-28T23:54:59.921Z,2.17
2019-04-28T23:57:29.338Z,2.20
2019-04-28T23:59:58.736Z,2.10
